KLRD/LRD METAR and TAF weather

Enter ICAO airport designator
Station Type Date Time Source
KLRD METAR 2018/12/13 08:56 UTC NOAA

KLRD 130856Z AUTO 17005KT 10SM CLR 14/13 A2978 RMK AO2 SLP095 60001 T01440133 56021


Station Type Date Time Source
KLRD Decoded METAR 2018/12/13 08:56 UTC NOAA

Laredo, Laredo International Airport, TX, United States (KLRD) 27-32-37N 099-27-41W
Dec 13, 2018 - 03:56 AM EST / 2018.12.13 0856 UTC
Wind: from the S (170 degrees) at 6 MPH (5 KT):0
Visibility: 10 mile(s):0
Sky conditions: clear
Temperature: 57.9 F (14.4 C)
Dew Point: 55.9 F (13.3 C)
Relative Humidity: 93%
Pressure (altimeter): 29.78 in. Hg (1008 hPa)
Pressure tendency: 0.06 inches (2.1 hPa) lower than three hours ago
ob: KLRD 130856Z AUTO 17005KT 10SM CLR 14/13 A2978 RMK AO2 SLP095 60001 T01440133 56021
cycle: 9

Station Type Date Time Source
KLRD TAF 2018/12/13 09:59 UTC NOAA

TAF
AMD KLRD 130859Z 1309/1406 21008KT P6SM SCT100
FM131500 27012G18KT P6SM SCT250
FM131630 28024G32KT P6SM SKC
FM131900 31038G48KT P6SM SKC
FM140000 32028G35KT P6SM SKC
FM140400 30018G26KT P6SM SKC


Example: see airport list